Time;durP1;ratioP1;P1;durP2;ratioP2;P2;SDS_P1;SDS_P2;PMS_P1;PMS_P2;Temp;Humidity;BMP_temperature;BMP_pressure;BME280_temperature;BME280_humidity;BME280_pressure;Samples;Min_cycle;Max_cycle;Signal;HPM_P1;HPM_P2
2021/08/29 00:02:01;;;;;;;;;;;;;;;5.86;97.77;99834.53;4965108;28;19976;-89
2021/08/29 00:04:26;;;;;;;;;;;;;;;5.94;97.39;99834.34;4966393;28;19922;-89
2021/08/29 00:06:52;;;;;;;;;;;;;;;5.94;97.40;99826.47;4964946;28;19922;-88
2021/08/29 00:09:17;;;;;;;;;;;;;;;5.91;97.55;99835.28;4967129;28;20005;-87
2021/08/29 03:11:40;;;;;;;;;;;;;;;5.64;95.01;99790.31;5631061;23;19934;-89
2021/08/29 03:14:06;;;;;;;;;;;;;;;5.72;95.25;99795.38;4976835;28;19922;-90
2021/08/29 03:16:32;;;;;;;;;;;;;;;5.66;94.67;99797.31;4995437;28;19921;-92
2021/08/29 03:18:59;;;;;;;;;;;;;;;5.61;95.17;99789.50;4978713;28;20396;-91
2021/08/29 03:21:24;;;;;;;;;;;;;;;5.67;94.83;99796.41;4978872;28;19921;-90
2021/08/29 03:23:49;;;;;;;;;;;;;;;5.61;94.75;99787.75;4978885;28;20428;-92
2021/08/29 03:26:15;;;;;;;;;;;;;;;5.64;95.07;99777.16;4977489;28;19925;-90
2021/08/29 03:28:40;;;;;;;;;;;;;;;5.67;95.51;99783.25;4978765;28;19929;-90
2021/08/29 03:31:05;;;;;;;;;;;;;;;5.59;94.75;99781.66;4978598;28;19922;-92
2021/08/29 03:33:34;;;;;;;;;;;;;;;5.62;94.46;99786.84;4986612;28;19921;-93
2021/08/29 03:36:00;;;;;;;;;;;;;;;5.66;94.99;99785.00;4978926;28;19953;-92
2021/08/29 03:38:27;;;;;;;;;;;;;;;5.64;95.45;99784.19;4978860;28;19965;-90
2021/08/29 03:40:53;;;;;;;;;;;;;;;5.74;99.19;99785.69;4977332;28;19929;-93
2021/08/29 03:43:19;;;;;;;;;;;;;;;5.89;100.00;99779.22;4996106;28;19925;-92
2021/08/29 03:45:46;;;;;;;;;;;;;;;6.02;100.00;99773.72;4986982;28;19972;-90
2021/08/29 03:48:21;;;;;;;;;;;;;;;6.09;100.00;99775.28;4955355;29;19922;-95
2021/08/29 03:50:49;;;;;;;;;;;;;;;6.09;100.00;99777.91;4938567;29;19923;-93
2021/08/29 03:53:17;;;;;;;;;;;;;;;6.03;100.00;99775.44;4954305;29;19925;-91
2021/08/29 03:55:43;;;;;;;;;;;;;;;6.02;100.00;99771.94;4937701;29;20308;-94
2021/08/29 03:58:09;;;;;;;;;;;;;;;6.27;100.00;99779.22;4939053;29;19934;-94
2021/08/29 04:00:36;;;;;;;;;;;;;;;6.45;100.00;99772.63;4939031;29;19919;-95
2021/08/29 04:03:02;;;;;;;;;;;;;;;6.34;100.00;99776.38;4938698;29;19923;-91
2021/08/29 04:05:34;;;;;;;;;;;;;;;6.29;100.00;99773.00;4955205;29;20401;-92
2021/08/29 04:08:16;;;;;;;;;;;;;;;;;;;;;
2021/08/29 04:10:53;;;;;;;;;;;;;;;6.12;100.00;99775.19;4953889;29;19966;-93
2021/08/29 04:13:18;;;;;;;;;;;;;;;6.54;100.00;99778.50;4974983;28;19926;-91
2021/08/29 04:15:44;;;;;;;;;;;;;;;6.89;100.00;99773.19;4977511;28;20324;-90
2021/08/29 04:18:09;;;;;;;;;;;;;;;6.75;100.00;99775.31;4977494;28;20000;-89
2021/08/29 04:20:35;;;;;;;;;;;;;;;7.04;100.00;99774.53;4977232;28;20369;-86
2021/08/29 04:23:00;;;;;;;;;;;;;;;7.09;100.00;99778.75;4994671;28;20436;-88
2021/08/29 04:25:26;;;;;;;;;;;;;;;6.88;100.00;99782.84;4977341;28;19918;-89
2021/08/29 04:27:54;;;;;;;;;;;;;;;6.71;100.00;99785.94;4976219;28;20012;-89
2021/08/29 04:30:19;;;;;;;;;;;;;;;6.49;100.00;99775.16;4985479;28;19926;-91
2021/08/29 04:32:48;;;;;;;;;;;;;;;6.44;100.00;99774.38;4977460;28;19918;-90
2021/08/29 04:35:13;;;;;;;;;;;;;;;6.28;100.00;99781.81;4977367;28;20012;-90
2021/08/29 04:37:38;;;;;;;;;;;;;;;6.17;100.00;99790.00;4977661;28;19971;-90
2021/08/29 04:40:04;;;;;;;;;;;;;;;6.25;100.00;99778.41;4977255;28;19913;-90
2021/08/29 04:42:29;;;;;;;;;;;;;;;6.14;100.00;99784.81;4976165;28;19922;-90
2021/08/29 04:44:55;;;;;;;;;;;;;;;6.06;100.00;99788.50;4977502;28;19917;-90
2021/08/29 04:47:20;;;;;;;;;;;;;;;6.00;100.00;99786.91;4977351;28;20489;-90
2021/08/29 04:49:45;;;;;;;;;;;;;;;6.09;100.00;99783.16;4977457;28;19924;-91
2021/08/29 04:52:11;;;;;;;;;;;;;;;5.97;100.00;99782.56;4994633;28;20035;-90
2021/08/29 04:54:36;;;;;;;;;;;;;;;5.96;100.00;99778.19;4977276;28;19918;-91
2021/08/29 04:57:01;;;;;;;;;;;;;;;5.94;100.00;99781.75;4975941;28;19925;-91
2021/08/29 04:59:27;;;;;;;;;;;;;;;5.94;100.00;99779.97;4977021;28;19918;-90
2021/08/29 05:01:53;;;;;;;;;;;;;;;5.93;100.00;99786.13;4976767;28;20016;-91
2021/08/29 05:04:19;;;;;;;;;;;;;;;5.94;100.00;99782.59;4976835;28;20295;-91
2021/08/29 05:06:44;;;;;;;;;;;;;;;5.89;100.00;99787.13;4977000;28;19917;-90
2021/08/29 05:09:09;;;;;;;;;;;;;;;5.92;100.00;99787.06;4976980;28;19918;-91
2021/08/29 05:11:34;;;;;;;;;;;;;;;5.92;100.00;99789.69;4975908;28;19918;-89
2021/08/29 05:14:00;;;;;;;;;;;;;;;5.78;100.00;99797.03;4973474;28;19922;-91
2021/08/29 12:46:39;;;;;;;;;;;;;;;5.59;97.20;99760.63;5085731;23;19969;-91
2021/08/29 12:49:05;;;;;;;;;;;;;;;5.67;97.12;99751.72;4968889;28;19961;-89
2021/08/29 12:51:32;;;;;;;;;;;;;;;5.67;96.97;99747.31;4967607;28;19953;-92
2021/08/29 12:54:03;;;;;;;;;;;;;;;5.64;96.67;99753.50;4961123;28;20338;-91
2021/08/29 12:56:30;;;;;;;;;;;;;;;5.60;97.00;99753.59;4946452;28;19970;-91
2021/08/29 12:58:59;;;;;;;;;;;;;;;5.63;97.16;99757.03;4946484;28;19944;-89
2021/08/29 13:01:27;;;;;;;;;;;;;;;5.61;96.82;99752.72;4946939;28;19929;-91
2021/08/29 13:03:52;;;;;;;;;;;;;;;5.58;97.06;99752.78;4947377;28;20028;-90
2021/08/29 13:06:19;;;;;;;;;;;;;;;5.57;96.71;99765.06;4946554;28;20029;-89
2021/08/29 13:08:49;;;;;;;;;;;;;;;5.63;97.44;99764.03;4947632;28;19945;-87
2021/08/29 13:11:27;;;;;;;;;;;;;;;5.64;97.82;99757.91;4946456;28;19919;-90
2021/08/29 13:13:54;;;;;;;;;;;;;;;5.66;97.16;99757.88;4963075;28;19954;-90
2021/08/29 13:16:20;;;;;;;;;;;;;;;5.67;96.99;99751.72;4962419;28;19922;-90
2021/08/29 13:18:47;;;;;;;;;;;;;;;5.68;96.82;99753.44;4968314;28;19921;-91
2021/08/29 13:21:20;;;;;;;;;;;;;;;5.66;97.13;99749.97;4967285;28;20388;-90
2021/08/29 13:23:45;;;;;;;;;;;;;;;5.64;97.82;99758.75;4967963;28;19926;-90
2021/08/29 13:26:14;;;;;;;;;;;;;;;5.72;97.81;99750.69;4966739;28;20392;-91
2021/08/29 13:28:48;;;;;;;;;;;;;;;5.66;97.94;99756.09;4974667;28;20436;-90
2021/08/29 13:31:14;;;;;;;;;;;;;;;5.73;97.99;99755.06;4965928;28;19918;-90
2021/08/29 13:33:40;;;;;;;;;;;;;;;5.74;97.90;99759.41;4967886;28;19957;-90
2021/08/29 13:36:06;;;;;;;;;;;;;;;5.79;97.88;99757.56;4967828;28;19972;-91
2021/08/29 13:38:32;;;;;;;;;;;;;;;5.73;97.80;99755.06;4966272;28;19929;-90
2021/08/29 13:41:03;;;;;;;;;;;;;;;5.71;97.86;99758.63;4974197;28;20400;-91
2021/08/29 13:43:39;;;;;;;;;;;;;;;5.74;97.60;99756.78;4966945;28;20310;-90
2021/08/29 13:46:05;;;;;;;;;;;;;;;5.74;97.91;99754.16;4964669;28;20359;-91
2021/08/29 13:48:31;;;;;;;;;;;;;;;5.76;97.05;99757.63;4967775;28;19968;-90
2021/08/29 13:50:57;;;;;;;;;;;;;;;5.74;96.96;99753.28;4966628;28;19953;-90
2021/08/29 13:53:27;;;;;;;;;;;;;;;5.74;96.46;99753.28;4967272;28;19925;-90
2021/08/29 13:55:55;;;;;;;;;;;;;;;5.72;96.80;99750.69;4966675;28;20389;-89
2021/08/29 13:58:21;;;;;;;;;;;;;;;5.83;97.29;99750.44;4974260;28;19929;-90
2021/08/29 14:00:49;;;;;;;;;;;;;;;5.72;97.42;99758.59;4981557;28;19919;-91
2021/08/29 14:03:14;;;;;;;;;;;;;;;5.74;97.40;99761.19;4966417;28;19918;-91
2021/08/29 14:05:41;;;;;;;;;;;;;;;5.73;97.48;99759.47;4971301;28;19925;-91
2021/08/29 14:08:06;;;;;;;;;;;;;;;5.73;97.76;99756.84;4968599;28;20053;-91
2021/08/29 14:10:35;;;;;;;;;;;;;;;5.95;97.49;99757.16;4984329;28;20000;-91
2021/08/29 14:13:00;;;;;;;;;;;;;;;5.83;96.38;99763.59;4967136;28;19935;-91
2021/08/29 14:15:29;;;;;;;;;;;;;;;5.76;96.95;99760.25;4965285;28;19929;-91
2021/08/29 14:17:55;;;;;;;;;;;;;;;5.76;96.90;99762.00;4966245;28;19922;-91
2021/08/29 14:20:20;;;;;;;;;;;;;;;5.83;96.92;99760.97;4965995;28;19914;-91
2021/08/29 14:22:46;;;;;;;;;;;;;;;5.84;96.74;99765.34;4965700;28;19924;-92
2021/08/29 14:25:14;;;;;;;;;;;;;;;5.82;97.01;99759.22;4965055;28;19922;-91
2021/08/29 14:27:42;;;;;;;;;;;;;;;5.77;96.82;99758.47;4964855;28;19925;-91
2021/08/29 14:30:08;;;;;;;;;;;;;;;5.70;96.99;99757.75;4964050;28;19929;-91
2021/08/29 14:32:33;;;;;;;;;;;;;;;5.73;96.76;99759.47;4966543;28;19918;-91
2021/08/29 14:35:00;;;;;;;;;;;;;;;5.73;96.85;99760.31;4966649;28;19957;-92
2021/08/29 14:37:28;;;;;;;;;;;;;;;5.82;96.59;99760.09;4962285;28;20336;-91
2021/08/29 14:39:54;;;;;;;;;;;;;;;5.75;96.66;99760.28;4965272;28;19929;-92
2021/08/29 14:42:21;;;;;;;;;;;;;;;5.70;96.91;99756.91;4984109;28;19918;-90
2021/08/29 14:44:47;;;;;;;;;;;;;;;5.71;97.19;99754.25;4965084;28;20608;-91
2021/08/29 14:47:12;;;;;;;;;;;;;;;5.69;97.04;99756.03;4967349;28;19980;-91
2021/08/29 14:49:38;;;;;;;;;;;;;;;5.80;97.03;99754.00;4966700;28;20384;-91
2021/08/29 14:52:03;;;;;;;;;;;;;;;5.74;97.30;99755.91;4965727;28;19922;-92
2021/08/29 14:54:31;;;;;;;;;;;;;;;5.76;97.66;99754.09;4967019;28;19926;-90
2021/08/29 14:56:57;;;;;;;;;;;;;;;5.72;96.78;99745.44;4966865;28;20277;-89
2021/08/29 14:59:22;;;;;;;;;;;;;;;5.62;97.55;99750.03;4968242;28;19917;-90
2021/08/29 15:01:48;;;;;;;;;;;;;;;5.71;97.34;99755.97;4968220;28;20134;-90
2021/08/29 15:04:13;;;;;;;;;;;;;;;5.66;97.38;99744.72;4969064;28;20056;-90
2021/08/29 15:06:38;;;;;;;;;;;;;;;5.74;96.70;99753.28;4969926;28;19922;-91
2021/08/29 15:09:03;;;;;;;;;;;;;;;5.66;96.98;99749.97;4968627;28;20012;-92
2021/08/29 15:11:29;;;;;;;;;;;;;;;5.68;97.10;99745.53;4970901;28;20311;-90
2021/08/29 15:13:54;;;;;;;;;;;;;;;5.69;97.67;99737.63;4969226;28;19918;-92
2021/08/29 15:16:19;;;;;;;;;;;;;;;5.63;97.64;99735.13;4968348;28;19922;-90
2021/08/29 15:18:45;;;;;;;;;;;;;;;5.67;97.92;99741.19;4977151;28;20001;-92
2021/08/29 15:21:10;;;;;;;;;;;;;;;5.71;97.59;99732.31;4969213;28;19929;-90
2021/08/29 15:23:38;;;;;;;;;;;;;;;5.66;97.47;99732.44;4969184;28;19918;-91
2021/08/29 15:26:06;;;;;;;;;;;;;;;5.64;97.34;99737.72;4969168;28;19926;-90
2021/08/29 15:28:32;;;;;;;;;;;;;;;5.67;97.36;99733.31;4985720;28;19914;-90
2021/08/29 15:30:58;;;;;;;;;;;;;;;5.68;97.55;99722.75;4966219;28;20333;-90
2021/08/29 15:33:24;;;;;;;;;;;;;;;5.62;97.72;99726.38;4978150;28;20016;-90
2021/08/29 15:35:49;;;;;;;;;;;;;;;5.63;97.62;99722.88;4968661;28;19984;-90
2021/08/29 15:38:15;;;;;;;;;;;;;;;5.58;97.71;99727.34;4969487;28;19964;-93
2021/08/29 15:40:41;;;;;;;;;;;;;;;5.69;97.44;99727.09;4968442;28;19914;-90
2021/08/29 15:43:07;;;;;;;;;;;;;;;5.66;97.56;99734.22;4969275;28;20071;-92
2021/08/29 15:45:40;;;;;;;;;;;;;;;5.66;97.61;99728.94;4967353;28;19969;-92
2021/08/29 15:48:06;;;;;;;;;;;;;;;5.67;98.01;99720.16;4969510;28;19922;-91
2021/08/29 15:50:32;;;;;;;;;;;;;;;5.60;98.00;99724.69;4967924;28;19993;-90
2021/08/29 15:52:57;;;;;;;;;;;;;;;5.60;97.94;99728.19;4976248;28;20365;-90
2021/08/29 15:55:23;;;;;;;;;;;;;;;5.64;97.21;99721.94;4968375;28;19925;-90
2021/08/29 15:57:49;;;;;;;;;;;;;;;5.62;97.28;99723.75;4976661;28;19944;-89
2021/08/29 16:00:17;;;;;;;;;;;;;;;5.63;97.42;99725.50;4985009;28;19924;-90
2021/08/29 16:02:43;;;;;;;;;;;;;;;5.56;97.29;99723.91;4968460;28;19972;-90
2021/08/29 16:05:09;;;;;;;;;;;;;;;5.62;97.50;99718.50;4984194;28;19918;-90
2021/08/29 16:07:34;;;;;;;;;;;;;;;5.62;96.96;99718.50;4969158;28;20301;-89
2021/08/29 16:09:59;;;;;;;;;;;;;;;5.57;97.08;99725.63;4985431;28;20042;-90
2021/08/29 16:12:25;;;;;;;;;;;;;;;5.56;97.90;99712.53;4968471;28;19922;-89
2021/08/29 16:14:51;;;;;;;;;;;;;;;5.57;97.89;99717.75;4967548;28;19926;-89
2021/08/29 16:17:16;;;;;;;;;;;;;;;5.60;98.07;99715.06;4968560;28;19926;-90
2021/08/29 16:19:41;;;;;;;;;;;;;;;5.58;98.13;99708.94;4968257;28;19922;-90
2021/08/29 16:22:07;;;;;;;;;;;;;;;5.63;98.19;99712.34;4967788;28;19925;-92
2021/08/29 16:24:32;;;;;;;;;;;;;;;5.61;98.52;99711.50;4968272;28;20292;-89
2021/08/29 16:26:57;;;;;;;;;;;;;;;5.57;99.09;99709.88;4968862;28;19918;-91
2021/08/29 16:29:22;;;;;;;;;;;;;;;5.57;98.37;99703.75;4967349;28;19922;-91
2021/08/29 16:31:48;;;;;;;;;;;;;;;5.59;98.39;99702.81;4967607;28;19918;-91
2021/08/29 16:34:13;;;;;;;;;;;;;;;5.55;98.79;99706.41;4967329;28;19932;-91
2021/08/29 16:36:38;;;;;;;;;;;;;;;5.55;98.89;99706.41;4968560;28;20370;-90
2021/08/29 16:39:04;;;;;;;;;;;;;;;5.61;98.08;99706.25;4967393;28;19929;-89
2021/08/29 16:41:30;;;;;;;;;;;;;;;5.59;97.80;99705.44;4967901;28;19922;-91
2021/08/29 16:43:57;;;;;;;;;;;;;;;5.55;97.81;99705.53;4968659;28;19930;-92
2021/08/29 16:46:23;;;;;;;;;;;;;;;5.58;98.58;99706.31;4966278;28;19977;-90
2021/08/29 16:48:48;;;;;;;;;;;;;;;5.60;98.40;99704.53;4968302;28;19922;-91
2021/08/29 16:51:13;;;;;;;;;;;;;;;5.61;98.56;99703.63;4967107;28;19984;-90
2021/08/29 16:53:38;;;;;;;;;;;;;;;5.50;99.03;99697.75;4968567;28;20021;-91
2021/08/29 16:56:04;;;;;;;;;;;;;;;5.54;99.13;99703.81;4984145;28;20340;-90
2021/08/29 16:58:29;;;;;;;;;;;;;;;5.53;98.35;99702.94;4967704;28;19918;-90
2021/08/29 17:00:56;;;;;;;;;;;;;;;5.58;98.62;99694.94;4966279;28;19965;-89
2021/08/29 17:03:22;;;;;;;;;;;;;;;5.59;98.49;99696.69;4984539;28;19925;-91
2021/08/29 17:05:48;;;;;;;;;;;;;;;5.54;98.48;99696.78;4968184;28;19969;-89
2021/08/29 17:08:13;;;;;;;;;;;;;;;5.56;99.43;99696.75;4967329;28;20021;-90
2021/08/29 17:10:38;;;;;;;;;;;;;;;5.65;98.57;99696.53;4967421;28;20416;-89
2021/08/29 17:13:03;;;;;;;;;;;;;;;5.60;98.40;99694.03;4964857;28;19925;-90
2021/08/29 17:15:29;;;;;;;;;;;;;;;5.60;98.65;99696.66;4966922;28;19913;-90
2021/08/29 17:17:54;;;;;;;;;;;;;;;5.61;98.29;99698.38;4967871;28;19968;-89
2021/08/29 17:20:19;;;;;;;;;;;;;;;5.59;98.77;99702.81;4966140;28;19917;-91
2021/08/29 17:22:45;;;;;;;;;;;;;;;5.60;98.94;99703.66;4984717;28;20399;-90
2021/08/29 17:25:12;;;;;;;;;;;;;;;5.58;98.85;99698.44;4943178;29;22284;-90
2021/08/29 17:27:38;;;;;;;;;;;;;;;5.56;98.75;99702.88;4927923;29;19918;-89
2021/08/29 17:30:05;;;;;;;;;;;;;;;5.62;98.50;99708.00;4927138;29;19989;-90
2021/08/29 17:32:30;;;;;;;;;;;;;;;5.59;98.47;99697.53;4927561;29;20342;-90
2021/08/29 17:34:55;;;;;;;;;;;;;;;5.59;98.72;99702.81;4927507;29;19953;-89
2021/08/29 17:37:21;;;;;;;;;;;;;;;5.54;98.59;99696.78;4927040;29;20254;-88
2021/08/29 17:39:46;;;;;;;;;;;;;;;5.59;98.71;99701.94;4943901;29;19925;-91
2021/08/29 17:42:11;;;;;;;;;;;;;;;5.58;98.01;99698.44;4932372;28;19919;-91
2021/08/29 17:44:38;;;;;;;;;;;;;;;5.51;98.16;99706.53;4967952;28;19932;-90
2021/08/29 17:47:03;;;;;;;;;;;;;;;5.55;98.07;99701.16;4966994;28;19922;-89
2021/08/29 17:49:28;;;;;;;;;;;;;;;5.55;98.16;99703.78;4966363;28;19926;-88
2021/08/29 17:51:54;;;;;;;;;;;;;;;5.56;98.49;99702.03;4967286;28;19965;-90
2021/08/29 17:54:19;;;;;;;;;;;;;;;5.54;98.42;99704.69;4965387;28;19976;-90
2021/08/29 17:56:44;;;;;;;;;;;;;;;5.62;98.61;99708.00;4965368;28;19918;-89
2021/08/29 17:59:10;;;;;;;;;;;;;;;5.53;98.12;99707.34;4966300;28;19915;-90
2021/08/29 18:01:36;;;;;;;;;;;;;;;5.58;98.35;99703.69;4964438;28;19925;-93
2021/08/29 18:04:01;;;;;;;;;;;;;;;5.53;97.97;99700.31;4967036;28;20297;-90
2021/08/29 18:06:29;;;;;;;;;;;;;;;5.57;98.65;99703.75;4965550;28;19918;-91
2021/08/29 18:08:54;;;;;;;;;;;;;;;5.53;97.96;99713.47;4981676;28;19925;-91
2021/08/29 18:11:22;;;;;;;;;;;;;;;5.51;97.83;99706.53;4967385;28;19918;-90
2021/08/29 18:13:47;;;;;;;;;;;;;;;5.48;98.41;99701.34;4970260;28;20373;-89
2021/08/29 18:16:12;;;;;;;;;;;;;;;5.53;98.52;99707.34;4968483;28;19929;-90
2021/08/29 18:21:31;;;;;;;;;;;;;;;5.55;97.97;99709.06;5062989;23;20028;-89
2021/08/29 18:23:56;;;;;;;;;;;;;;;5.50;97.77;99708.28;4985518;28;20056;-89
2021/08/29 18:26:24;;;;;;;;;;;;;;;5.51;97.69;99696.88;4983765;28;19922;-91
2021/08/29 18:28:52;;;;;;;;;;;;;;;5.51;97.99;99711.78;4983335;28;19945;-90
2021/08/29 18:31:18;;;;;;;;;;;;;;;5.52;97.94;99706.50;4985595;28;19928;-90
2021/08/29 18:33:43;;;;;;;;;;;;;;;5.57;98.28;99709.88;4979639;28;19922;-90
2021/08/29 18:36:08;;;;;;;;;;;;;;;5.52;98.22;99717.00;4983193;28;20089;-89
2021/08/29 18:38:34;;;;;;;;;;;;;;;5.50;98.62;99713.53;4983146;28;20297;-90
2021/08/29 18:40:59;;;;;;;;;;;;;;;5.58;98.00;99714.19;4980130;28;19918;-90
2021/08/29 18:43:24;;;;;;;;;;;;;;;5.54;98.26;99722.22;4979396;28;19953;-89
2021/08/29 18:45:50;;;;;;;;;;;;;;;5.50;98.27;99718.78;4982242;28;19922;-90
2021/08/29 18:48:15;;;;;;;;;;;;;;;5.59;97.89;99725.59;4984002;28;19965;-90
2021/08/29 18:50:41;;;;;;;;;;;;;;;5.49;98.07;99716.19;4986225;28;20384;-90
2021/08/29 18:53:07;;;;;;;;;;;;;;;5.49;98.10;99717.06;4986202;28;19926;-91
2021/08/29 18:55:32;;;;;;;;;;;;;;;5.50;97.67;99718.78;4977977;28;19918;-89
2021/08/29 18:57:58;;;;;;;;;;;;;;;5.52;98.14;99714.38;4987396;28;19926;-90
2021/08/29 19:00:23;;;;;;;;;;;;;;;5.50;97.96;99718.78;4979952;28;20389;-89
2021/08/29 19:02:49;;;;;;;;;;;;;;;5.56;98.57;99723.03;4987470;28;19971;-89
2021/08/29 19:05:15;;;;;;;;;;;;;;;5.56;98.08;99720.41;4980750;28;19957;-89
2021/08/29 19:07:40;;;;;;;;;;;;;;;5.56;98.17;99721.28;4982330;28;20012;-91
2021/08/29 19:10:06;;;;;;;;;;;;;;;5.47;98.05;99721.47;4984771;28;20411;-89
2021/08/29 19:12:33;;;;;;;;;;;;;;;5.51;98.13;99719.66;4983674;28;19932;-89
2021/08/29 19:15:04;;;;;;;;;;;;;;;5.51;98.40;99719.66;4979835;28;19922;-89
2021/08/29 19:17:29;;;;;;;;;;;;;;;5.48;98.19;99717.97;4986484;28;19925;-89
2021/08/29 19:19:54;;;;;;;;;;;;;;;5.51;98.20;99712.63;4983006;28;19926;-91
2021/08/29 19:22:20;;;;;;;;;;;;;;;5.49;97.74;99714.44;4984464;28;19924;-90
2021/08/29 19:24:45;;;;;;;;;;;;;;;5.43;97.73;99709.31;4980226;28;20333;-89
2021/08/29 19:27:10;;;;;;;;;;;;;;;5.46;97.89;99711.88;4987772;28;19976;-90
2021/08/29 19:29:36;;;;;;;;;;;;;;;5.44;97.65;99708.41;4981649;28;20036;-91
2021/08/29 19:32:01;;;;;;;;;;;;;;;5.46;97.79;99714.50;4983948;28;19921;-89
2021/08/29 19:34:27;;;;;;;;;;;;;;;5.41;97.26;99714.63;4981677;28;19929;-90
2021/08/29 19:36:52;;;;;;;;;;;;;;;5.42;97.28;99710.22;4981046;28;19921;-90
2021/08/29 19:39:17;;;;;;;;;;;;;;;5.38;97.61;99712.06;4984246;28;19921;-88
2021/08/29 19:41:42;;;;;;;;;;;;;;;5.41;97.91;99708.50;4980529;28;20369;-90
2021/08/29 19:44:08;;;;;;;;;;;;;;;5.44;97.20;99714.56;4984914;28;19975;-91
2021/08/29 19:46:33;;;;;;;;;;;;;;;5.52;97.67;99711.75;4987668;28;20392;-89
2021/08/29 19:48:58;;;;;;;;;;;;;;;5.47;97.06;99713.59;4982599;28;19925;-90
2021/08/29 19:51:24;;;;;;;;;;;;;;;5.44;97.53;99711.91;4985084;28;19921;-90
2021/08/29 19:53:50;;;;;;;;;;;;;;;5.43;97.26;99711.94;4987544;28;19972;-90
2021/08/29 19:56:18;;;;;;;;;;;;;;;5.48;97.03;99710.06;4986065;28;19922;-89
2021/08/29 19:58:43;;;;;;;;;;;;;;;5.45;97.16;99705.75;4984332;28;19937;-91
2021/08/29 20:01:09;;;;;;;;;;;;;;;5.50;96.96;99708.28;4987678;28;19921;-91
2021/08/29 20:03:34;;;;;;;;;;;;;;;5.48;96.92;99704.81;4986735;28;20423;-91
2021/08/29 20:05:59;;;;;;;;;;;;;;;5.41;96.77;99704.09;4987010;28;20373;-92
2021/08/29 20:08:25;;;;;;;;;;;;;;;5.42;97.04;99700.56;4986674;28;19969;-91
2021/08/29 20:10:50;;;;;;;;;;;;;;;5.45;96.75;99703.13;4985938;28;20282;-89
2021/08/29 20:13:16;;;;;;;;;;;;;;;5.39;97.09;99705.03;4984780;28;20388;-90
2021/08/29 20:15:44;;;;;;;;;;;;;;;5.39;97.45;99710.28;4984035;28;19921;-91
2021/08/29 20:18:09;;;;;;;;;;;;;;;5.39;97.24;99715.53;4985071;28;19922;-93
2021/08/29 20:20:35;;;;;;;;;;;;;;;5.51;96.74;99715.25;4985988;28;19929;-92
2021/08/29 20:23:00;;;;;;;;;;;;;;;5.37;97.38;99707.69;4982861;28;20373;-94
2021/08/29 20:25:25;;;;;;;;;;;;;;;5.40;97.17;99719.91;4982847;28;19943;-92
2021/08/29 20:27:51;;;;;;;;;;;;;;;5.41;97.76;99713.75;4983342;28;20369;-88
2021/08/29 20:30:16;;;;;;;;;;;;;;;5.39;97.07;99718.16;4981817;28;19957;-92
2021/08/29 20:32:42;;;;;;;;;;;;;;;5.43;97.16;99712.81;4984092;28;19965;-91
2021/08/29 20:35:07;;;;;;;;;;;;;;;5.44;97.10;99711.03;4984255;28;19922;-92
2021/08/29 20:37:33;;;;;;;;;;;;;;;5.44;96.97;99719.81;4985461;28;19918;-93
2021/08/29 20:39:58;;;;;;;;;;;;;;;5.47;96.77;99713.59;4984303;28;19922;-89
2021/08/29 20:42:24;;;;;;;;;;;;;;;5.38;97.34;99711.19;4984730;28;19969;-90
2021/08/29 20:44:49;;;;;;;;;;;;;;;5.40;97.09;99709.41;4981790;28;19922;-90
2021/08/29 20:47:15;;;;;;;;;;;;;;;5.39;97.46;99708.53;4983444;28;19925;-90
2021/08/29 20:49:40;;;;;;;;;;;;;;;5.36;97.39;99721.75;4985225;28;19918;-90
2021/08/29 20:52:05;;;;;;;;;;;;;;;5.41;97.34;99704.09;4985191;28;19946;-90
2021/08/29 20:54:30;;;;;;;;;;;;;;;5.41;96.85;99709.34;4983140;28;19918;-91
2021/08/29 20:56:56;;;;;;;;;;;;;;;5.38;96.91;99709.44;4989093;28;19922;-92
2021/08/29 20:59:21;;;;;;;;;;;;;;;5.32;97.37;99709.56;4982472;28;19932;-92
2021/08/29 21:01:46;;;;;;;;;;;;;;;5.38;97.17;99706.81;4982175;28;20317;-93
2021/08/29 21:04:12;;;;;;;;;;;;;;;5.37;97.06;99705.06;4982335;28;20017;-91
2021/08/29 21:06:37;;;;;;;;;;;;;;;5.41;97.43;99704.09;4986653;28;19918;-90
2021/08/29 21:09:02;;;;;;;;;;;;;;;5.40;97.19;99712.03;4983690;28;19925;-92
2021/08/29 21:11:27;;;;;;;;;;;;;;;5.39;97.26;99705.03;4982751;28;19929;-91
2021/08/29 21:13:53;;;;;;;;;;;;;;;5.36;97.63;99715.59;4987006;28;19922;-91
2021/08/29 21:16:18;;;;;;;;;;;;;;;5.40;97.08;99710.25;4986683;28;19992;-92
2021/08/29 21:18:43;;;;;;;;;;;;;;;5.39;96.93;99710.28;4985089;28;20513;-91
2021/08/29 21:21:09;;;;;;;;;;;;;;;5.44;97.41;99706.66;4984112;28;19922;-89
2021/08/29 21:23:34;;;;;;;;;;;;;;;5.35;97.26;99712.13;4985377;28;20030;-91
2021/08/29 21:25:59;;;;;;;;;;;;;;;5.41;96.86;99705.88;4984854;28;19925;-92
2021/08/29 21:28:25;;;;;;;;;;;;;;;5.42;96.83;99710.22;4982185;28;19914;-88
2021/08/29 21:30:51;;;;;;;;;;;;;;;5.37;97.18;99709.47;4980974;28;19933;-90
2021/08/29 21:33:17;;;;;;;;;;;;;;;5.38;97.08;99713.84;4981155;28;19934;-91
2021/08/29 21:35:42;;;;;;;;;;;;;;;5.39;96.99;99710.28;4983301;28;20478;-90
2021/08/29 21:38:08;;;;;;;;;;;;;;;5.32;97.18;99709.56;4987007;28;19918;-90
2021/08/29 21:40:33;;;;;;;;;;;;;;;5.39;96.75;99712.91;4985772;28;19914;-91
2021/08/29 21:42:58;;;;;;;;;;;;;;;5.39;97.15;99707.66;4982295;28;20388;-91
2021/08/29 21:45:24;;;;;;;;;;;;;;;5.42;96.71;99704.97;4983304;28;19928;-92
2021/08/29 21:47:49;;;;;;;;;;;;;;;5.38;97.66;99706.81;4981473;28;19937;-89
2021/08/29 21:50:15;;;;;;;;;;;;;;;5.37;97.25;99706.84;4979224;28;19951;-91
2021/08/29 21:52:40;;;;;;;;;;;;;;;5.36;97.00;99705.09;4981013;28;19922;-90
2021/08/29 21:55:06;;;;;;;;;;;;;;;5.34;96.88;99701.66;4983690;28;19925;-91
2021/08/29 21:57:31;;;;;;;;;;;;;;;5.33;96.97;99700.78;4980549;28;19918;-91
2021/08/29 21:59:57;;;;;;;;;;;;;;;5.34;97.22;99704.28;4983635;28;19929;-90
2021/08/29 22:02:23;;;;;;;;;;;;;;;5.39;97.50;99702.41;4981380;28;20020;-89
2021/08/29 22:04:48;;;;;;;;;;;;;;;5.36;98.05;99691.97;4984593;28;20374;-90
2021/08/29 22:07:13;;;;;;;;;;;;;;;5.35;97.63;99703.38;4984032;28;19913;-92
2021/08/29 22:09:39;;;;;;;;;;;;;;;5.39;97.50;99703.28;4983190;28;19922;-90
2021/08/29 22:12:04;;;;;;;;;;;;;;;5.41;97.66;99703.25;4987546;28;20072;-90
2021/08/29 22:14:29;;;;;;;;;;;;;;;5.39;97.72;99710.28;4983609;28;19914;-89
2021/08/29 22:16:55;;;;;;;;;;;;;;;5.33;98.02;99703.41;4980867;28;19925;-89
2021/08/29 22:19:20;;;;;;;;;;;;;;;5.38;97.61;99704.16;4983681;28;20254;-90
2021/08/29 22:21:47;;;;;;;;;;;;;;;5.38;97.49;99708.56;4979037;28;19926;-91
2021/08/29 22:24:12;;;;;;;;;;;;;;;5.33;98.01;99700.78;4982469;28;19926;-90
2021/08/29 22:26:37;;;;;;;;;;;;;;;5.31;98.16;99701.72;4980184;28;19929;-90
2021/08/29 22:29:04;;;;;;;;;;;;;;;5.37;97.75;99702.44;4979548;28;19997;-92
2021/08/29 22:31:30;;;;;;;;;;;;;;;5.33;97.83;99702.53;4981719;28;19925;-91
2021/08/29 22:33:55;;;;;;;;;;;;;;;5.36;97.93;99698.09;4980516;28;19988;-90
2021/08/29 22:36:20;;;;;;;;;;;;;;;5.31;97.54;99701.72;4978315;28;19923;-92
2021/08/29 22:38:46;;;;;;;;;;;;;;;5.33;97.79;99694.66;4983747;28;19971;-91
2021/08/29 22:41:11;;;;;;;;;;;;;;;5.29;97.75;99707.00;4981648;28;19922;-91
2021/08/29 22:43:36;;;;;;;;;;;;;;;5.33;97.73;99702.53;4981133;28;19933;-92
2021/08/29 22:46:01;;;;;;;;;;;;;;;5.33;97.82;99694.66;4982372;28;19922;-89
2021/08/29 22:48:27;;;;;;;;;;;;;;;5.36;97.51;99697.22;4981583;28;19969;-90
2021/08/29 22:50:52;;;;;;;;;;;;;;;5.35;97.37;99691.09;4982208;28;19922;-90
2021/08/29 22:53:17;;;;;;;;;;;;;;;5.31;97.29;99692.06;4981788;28;19926;-90
2021/08/29 22:55:44;;;;;;;;;;;;;;;5.23;97.94;99683.50;4978726;28;19922;-90
2021/08/29 22:58:10;;;;;;;;;;;;;;;5.27;98.26;99686.03;4979598;28;19918;-89
2021/08/29 23:00:36;;;;;;;;;;;;;;;5.22;98.58;99685.25;4979501;28;19953;-90
2021/08/29 23:03:01;;;;;;;;;;;;;;;5.27;98.16;99685.16;4981739;28;20412;-91
2021/08/29 23:05:26;;;;;;;;;;;;;;;5.28;97.69;99692.13;4978845;28;20373;-90
2021/08/29 23:07:52;;;;;;;;;;;;;;;5.26;98.06;99686.06;4983434;28;19972;-89
2021/08/29 23:10:17;;;;;;;;;;;;;;;5.27;97.89;99685.16;4995367;28;19928;-90
2021/08/29 23:12:46;;;;;;;;;;;;;;;5.33;97.66;99689.41;4980091;28;20033;-89
2021/08/29 23:15:12;;;;;;;;;;;;;;;5.22;97.90;99684.41;4982830;28;19941;-90
2021/08/29 23:17:37;;;;;;;;;;;;;;;5.33;97.78;99689.41;4978702;28;20379;-90
2021/08/29 23:20:03;;;;;;;;;;;;;;;5.26;97.41;99684.31;4986058;28;19922;-91
2021/08/29 23:22:28;;;;;;;;;;;;;;;5.28;97.69;99682.50;4986303;28;20425;-90
2021/08/29 23:24:54;;;;;;;;;;;;;;;5.25;97.36;99674.69;4984170;28;19928;-90